createdAt,value
2023-05-21T00:00:17.662Z,23.42
2023-05-21T00:05:21.709Z,23.46
2023-05-21T00:10:26.613Z,23.41
2023-05-21T00:15:29.605Z,23.30
2023-05-21T00:20:33.165Z,23.16
2023-05-21T00:25:37.402Z,23.06
2023-05-21T00:30:41.058Z,23.00
2023-05-21T00:35:43.960Z,23.00
2023-05-21T00:40:48.173Z,22.98
2023-05-21T00:45:53.742Z,22.98
2023-05-21T00:50:56.604Z,22.93
2023-05-21T00:56:00.813Z,22.91
2023-05-21T01:01:06.730Z,22.88
2023-05-21T01:06:10.305Z,22.84
2023-05-21T01:11:15.056Z,22.80
2023-05-21T01:16:18.151Z,22.74
2023-05-21T01:21:21.648Z,22.69
2023-05-21T01:26:26.243Z,22.63
2023-05-21T01:31:30.355Z,22.58
2023-05-21T01:36:35.982Z,22.53
2023-05-21T01:41:41.856Z,22.51
2023-05-21T01:46:44.736Z,22.48
2023-05-21T01:51:47.601Z,22.42
2023-05-21T01:56:51.724Z,22.41
2023-05-21T02:01:54.676Z,22.38
2023-05-21T02:06:57.569Z,22.34
2023-05-21T02:12:02.216Z,22.32
2023-05-21T02:17:05.176Z,22.32
2023-05-21T02:22:08.180Z,22.27
2023-05-21T02:27:13.621Z,22.23
2023-05-21T02:32:17.026Z,22.20
2023-05-21T02:37:20.149Z,22.18
2023-05-21T02:42:24.447Z,22.16
2023-05-21T02:47:27.587Z,22.13
2023-05-21T02:52:30.473Z,22.10
2023-05-21T02:57:34.700Z,22.09
2023-05-21T03:02:37.651Z,22.07
2023-05-21T03:07:41.837Z,22.04
2023-05-21T03:12:46.033Z,22.00
2023-05-21T03:17:48.943Z,21.96
2023-05-21T03:22:52.767Z,21.94
2023-05-21T03:27:57.105Z,21.92
2023-05-21T03:33:21.786Z,21.90
2023-05-21T03:38:24.832Z,21.89
2023-05-21T03:43:29.736Z,21.88
2023-05-21T03:48:32.655Z,21.87
2023-05-21T03:53:37.032Z,21.87
2023-05-21T03:58:41.541Z,21.86
2023-05-21T04:03:44.861Z,21.88
2023-05-21T04:08:48.084Z,21.88
2023-05-21T04:13:52.819Z,21.89
2023-05-21T04:18:56.421Z,21.89
2023-05-21T04:24:02.154Z,21.89
2023-05-21T04:29:42.486Z,21.89
2023-05-21T04:34:45.627Z,21.90
2023-05-21T04:39:48.469Z,21.91
2023-05-21T04:44:55.541Z,21.91
2023-05-21T04:49:59.338Z,21.92
2023-05-21T04:55:03.810Z,21.91
2023-05-21T05:00:10.348Z,21.92
2023-05-21T05:05:17.531Z,21.92
2023-05-21T05:10:20.409Z,21.94
2023-05-21T05:15:25.142Z,21.96
2023-05-21T05:20:28.236Z,21.94
2023-05-21T05:25:31.391Z,21.99
2023-05-21T05:30:36.356Z,22.00
2023-05-21T05:35:50.969Z,22.02
2023-05-21T05:40:54.025Z,22.06
2023-05-21T05:46:00.118Z,22.07
2023-05-21T05:51:03.128Z,22.10
2023-05-21T05:56:08.321Z,22.13
2023-05-21T06:01:14.376Z,22.16
2023-05-21T06:06:18.012Z,22.17
2023-05-21T06:11:21.584Z,22.21
2023-05-21T06:16:25.847Z,22.24
2023-05-21T06:21:29.243Z,22.27
2023-05-21T06:26:32.376Z,22.30
2023-05-21T06:31:37.516Z,22.32
2023-05-21T06:36:40.526Z,22.38
2023-05-21T06:41:43.466Z,22.41
2023-05-21T06:47:06.723Z,22.44
2023-05-21T06:52:09.633Z,22.46
2023-05-21T06:57:12.680Z,22.48
2023-05-21T07:02:17.313Z,22.51
2023-05-21T07:07:20.277Z,22.49
2023-05-21T07:12:23.639Z,22.48
2023-05-21T07:17:28.242Z,22.46
2023-05-21T07:22:31.428Z,22.35
2023-05-21T07:27:34.343Z,22.46
2023-05-21T07:32:38.814Z,22.48
2023-05-21T07:37:41.893Z,22.46
2023-05-21T07:42:45.575Z,22.49
2023-05-21T07:47:51.903Z,22.23
2023-05-21T07:52:55.394Z,22.27
2023-05-21T07:57:58.549Z,22.19
2023-05-21T08:03:07.250Z,22.30
2023-05-21T08:08:10.368Z,22.21
2023-05-21T08:13:13.436Z,22.33
2023-05-21T08:18:18.446Z,22.42
2023-05-21T08:23:22.751Z,22.53
2023-05-21T08:28:29.849Z,22.55
2023-05-21T08:33:37.064Z,22.69
2023-05-21T08:38:40.875Z,22.55
2023-05-21T08:43:57.573Z,22.60
2023-05-21T08:49:04.684Z,22.65
2023-05-21T08:54:09.092Z,22.61
2023-05-21T08:59:11.966Z,22.71
2023-05-21T09:04:21.289Z,22.83
2023-05-21T09:09:31.593Z,22.81
2023-05-21T09:14:34.490Z,22.82
2023-05-21T09:20:12.523Z,22.82
2023-05-21T09:25:22.328Z,23.00
2023-05-21T09:30:27.817Z,23.22
2023-05-21T09:35:36.161Z,23.30
2023-05-21T09:40:40.499Z,23.20
2023-05-21T09:45:51.783Z,23.05
2023-05-21T09:50:56.135Z,23.22
2023-05-21T09:55:59.016Z,23.20
2023-05-21T10:01:01.843Z,23.28
2023-05-21T10:06:06.493Z,23.25
2023-05-21T10:11:09.496Z,23.48
2023-05-21T10:16:12.758Z,23.50
2023-05-21T10:21:17.088Z,23.51
2023-05-21T10:26:21.494Z,23.59
2023-05-21T10:31:24.540Z,23.33
2023-05-21T10:36:29.590Z,23.53
2023-05-21T10:41:35.008Z,23.57
2023-05-21T10:47:08.608Z,23.58
2023-05-21T10:52:19.951Z,23.70
2023-05-21T10:57:44.448Z,23.75
2023-05-21T11:02:47.462Z,23.71
2023-05-21T11:07:56.368Z,23.72
2023-05-21T11:13:14.874Z,23.70
2023-05-21T11:18:18.222Z,23.72
2023-05-21T11:23:23.209Z,23.77
2023-05-21T11:28:35.410Z,23.80
2023-05-21T11:33:38.288Z,23.93
2023-05-21T11:38:42.483Z,23.93
2023-05-21T11:43:45.364Z,24.03
2023-05-21T11:48:48.166Z,24.09
2023-05-21T11:53:52.367Z,24.12
2023-05-21T11:58:55.872Z,24.12
2023-05-21T12:03:58.823Z,24.10
2023-05-21T12:09:04.609Z,24.18
2023-05-21T12:14:09.216Z,24.18
2023-05-21T12:19:12.134Z,23.89
2023-05-21T12:24:16.496Z,24.28
2023-05-21T12:29:20.347Z,24.31
2023-05-21T12:34:39.508Z,24.25
2023-05-21T12:39:44.693Z,24.40
2023-05-21T12:44:51.585Z,24.56
2023-05-21T12:49:56.406Z,24.61
2023-05-21T12:55:00.896Z,24.66
2023-05-21T13:00:06.523Z,24.52
2023-05-21T13:05:10.251Z,24.44
2023-05-21T13:10:14.607Z,24.70
2023-05-21T13:15:17.547Z,24.50
2023-05-21T13:20:21.856Z,24.44
2023-05-21T13:25:28.831Z,24.43
2023-05-21T13:30:33.319Z,24.39
2023-05-21T13:35:36.378Z,24.23
2023-05-21T13:40:41.434Z,24.26
2023-05-21T13:45:52.571Z,24.46
2023-05-21T13:50:55.436Z,24.60
2023-05-21T13:55:59.719Z,24.69
2023-05-21T14:01:02.920Z,24.78
2023-05-21T14:06:08.299Z,24.80
2023-05-21T14:11:12.439Z,24.91
2023-05-21T14:16:15.399Z,24.89
2023-05-21T14:21:18.466Z,24.97
2023-05-21T14:26:22.607Z,24.99
2023-05-21T14:31:25.797Z,25.04
2023-05-21T14:36:28.906Z,25.03
2023-05-21T14:41:33.170Z,24.92
2023-05-21T14:46:36.837Z,24.91
2023-05-21T14:51:40.666Z,24.90
2023-05-21T14:56:45.008Z,24.87
2023-05-21T15:01:49.455Z,24.91
2023-05-21T15:06:52.455Z,24.94
2023-05-21T15:11:56.647Z,24.96
2023-05-21T15:16:59.492Z,25.06
2023-05-21T15:22:02.728Z,25.21
2023-05-21T15:27:07.667Z,25.31
2023-05-21T15:32:10.743Z,25.40
2023-05-21T15:37:15.344Z,25.47
2023-05-21T15:42:26.267Z,25.77
2023-05-21T15:47:29.286Z,25.84
2023-05-21T15:52:32.773Z,26.08
2023-05-21T15:57:37.070Z,26.64
2023-05-21T16:02:40.923Z,26.82
2023-05-21T16:07:44.468Z,27.11
2023-05-21T16:12:48.871Z,27.18
2023-05-21T16:17:51.865Z,26.93
2023-05-21T16:22:54.779Z,26.36
2023-05-21T16:27:59.000Z,25.83
2023-05-21T16:33:01.901Z,25.54
2023-05-21T16:38:04.764Z,25.40
2023-05-21T16:43:08.967Z,25.35
2023-05-21T16:48:12.798Z,25.33
2023-05-21T16:53:16.257Z,25.25
2023-05-21T16:58:20.432Z,25.21
2023-05-21T17:03:23.498Z,25.16
2023-05-21T17:08:26.304Z,25.04
2023-05-21T17:13:30.782Z,24.88
2023-05-21T17:18:33.739Z,24.79
2023-05-21T17:23:36.577Z,24.76
2023-05-21T17:28:40.768Z,24.60
2023-05-21T17:33:43.657Z,24.66
2023-05-21T17:38:46.903Z,24.59
2023-05-21T17:43:51.333Z,24.50
2023-05-21T17:48:54.111Z,24.51
2023-05-21T17:53:57.494Z,24.50
2023-05-21T17:59:01.847Z,24.52
2023-05-21T18:04:05.138Z,24.47
2023-05-21T18:09:10.431Z,24.39
2023-05-21T18:14:14.780Z,24.39
2023-05-21T18:19:17.716Z,24.34
2023-05-21T18:24:20.688Z,24.43
2023-05-21T18:29:24.972Z,24.40
2023-05-21T18:34:27.787Z,24.37
2023-05-21T18:39:30.710Z,24.34
2023-05-21T18:44:35.017Z,24.32
2023-05-21T18:49:37.980Z,24.31
2023-05-21T18:54:40.923Z,24.29
2023-05-21T18:59:45.314Z,24.28
2023-05-21T19:04:48.744Z,24.26
2023-05-21T19:09:52.732Z,24.23
2023-05-21T19:14:56.984Z,24.23
2023-05-21T19:20:00.087Z,24.21
2023-05-21T19:25:03.013Z,24.21
2023-05-21T19:30:09.635Z,24.08
2023-05-21T19:35:12.440Z,24.04
2023-05-21T19:40:17.546Z,24.01
2023-05-21T19:45:22.276Z,24.10
2023-05-21T19:50:25.219Z,24.15
2023-05-21T19:55:28.437Z,24.15
2023-05-21T20:00:33.278Z,24.14
2023-05-21T20:05:36.163Z,24.16
2023-05-21T20:10:40.360Z,24.14
2023-05-21T20:15:44.807Z,24.14
2023-05-21T20:20:47.669Z,24.12
2023-05-21T20:25:50.992Z,24.16
2023-05-21T20:30:57.624Z,24.14
2023-05-21T20:36:00.670Z,24.12
2023-05-21T20:41:03.704Z,24.12
2023-05-21T20:46:08.051Z,24.11
2023-05-21T20:51:11.197Z,24.10
2023-05-21T20:56:16.998Z,24.11
2023-05-21T21:01:24.207Z,24.11
2023-05-21T21:06:30.023Z,24.12
2023-05-21T21:11:33.066Z,24.11
2023-05-21T21:16:37.268Z,24.10
2023-05-21T21:21:40.406Z,24.10
2023-05-21T21:26:43.623Z,24.11
2023-05-21T21:31:47.987Z,24.10
2023-05-21T21:36:51.176Z,24.09
2023-05-21T21:41:54.045Z,24.08
2023-05-21T21:46:58.255Z,24.10
2023-05-21T21:52:01.398Z,24.08
2023-05-21T21:57:04.656Z,24.08
2023-05-21T22:02:08.855Z,24.07
2023-05-21T22:07:17.781Z,24.05
2023-05-21T22:12:20.929Z,24.06
2023-05-21T22:17:25.384Z,24.13
2023-05-21T22:22:28.229Z,24.14
2023-05-21T22:27:31.032Z,24.15
2023-05-21T22:32:35.216Z,24.14
2023-05-21T22:37:38.250Z,24.16
2023-05-21T22:42:41.209Z,24.15
2023-05-21T22:47:45.393Z,24.10
2023-05-21T22:52:48.177Z,24.08
2023-05-21T22:57:50.928Z,24.04
2023-05-21T23:02:55.213Z,24.01
2023-05-21T23:07:58.067Z,24.00
2023-05-21T23:13:00.910Z,24.06
2023-05-21T23:18:05.098Z,23.98
2023-05-21T23:23:08.014Z,23.95
2023-05-21T23:28:10.817Z,23.93
2023-05-21T23:33:15.037Z,23.91
2023-05-21T23:38:17.901Z,23.86
2023-05-21T23:43:20.751Z,23.82
2023-05-21T23:48:25.523Z,23.76
2023-05-21T23:53:28.314Z,23.69
2023-05-21T23:58:31.114Z,23.65
